Time;durP1;ratioP1;P1;durP2;ratioP2;P2;SDS_P1;SDS_P2;PMS_P1;PMS_P2;Temp;Humidity;BMP_temperature;BMP_pressure;BME280_temperature;BME280_humidity;BME280_pressure;Samples;Min_cycle;Max_cycle;Signal;HPM_P1;HPM_P2
2023/03/09 00:01:43;;;;;;;14.18;6.07;;;1.30;99.90;;;;;;5120599;28;20048;-78
2023/03/09 00:04:13;;;;;;;13.57;6.28;;;1.10;99.90;;;;;;5070390;28;20037;-77
2023/03/09 00:06:40;;;;;;;13.20;6.38;;;1.10;99.90;;;;;;5121223;28;20045;-77
2023/03/09 00:09:07;;;;;;;14.82;6.50;;;1.00;99.90;;;;;;5103463;28;20041;-78
2023/03/09 00:11:35;;;;;;;13.80;6.30;;;1.00;99.90;;;;;;5103548;28;20115;-78
2023/03/09 00:14:01;;;;;;;13.88;6.93;;;1.60;99.90;;;;;;5086558;28;20408;-78
2023/03/09 00:16:29;;;;;;;16.05;6.97;;;1.10;99.90;;;;;;5103709;28;20041;-78
2023/03/09 00:18:57;;;;;;;13.68;6.43;;;1.00;99.90;;;;;;5103758;28;20056;-77
2023/03/09 00:21:36;;;;;;;12.98;6.45;;;1.10;99.90;;;;;;5087019;28;20049;-78
2023/03/09 00:24:11;;;;;;;13.00;6.72;;;1.10;99.90;;;;;;5069997;28;20504;-78
2023/03/09 00:26:41;;;;;;;14.38;7.07;;;1.10;99.90;;;;;;5103410;28;20063;-78
2023/03/09 00:29:09;;;;;;;11.32;6.35;;;1.10;99.90;;;;;;5069692;28;20041;-78
2023/03/09 00:31:37;;;;;;;14.18;6.68;;;1.00;99.90;;;;;;5103607;28;20072;-78
2023/03/09 00:34:04;;;;;;;14.55;6.95;;;1.00;99.90;;;;;;5069748;28;20041;-78
2023/03/09 00:36:31;;;;;;;15.15;6.93;;;1.00;99.90;;;;;;5086714;28;20033;-78
2023/03/09 00:38:59;;;;;;;15.18;6.40;;;1.00;99.90;;;;;;5102984;28;20052;-78
2023/03/09 00:41:28;;;;;;;14.05;6.22;;;1.00;99.90;;;;;;5086399;28;20449;-77
2023/03/09 00:43:54;;;;;;;12.93;6.60;;;1.00;99.90;;;;;;5084842;28;20091;-77
2023/03/09 00:46:21;;;;;;;14.85;6.40;;;1.00;99.90;;;;;;5102350;28;20448;-77
2023/03/09 00:48:48;;;;;;;15.52;6.50;;;1.10;99.90;;;;;;5086307;28;20041;-78
2023/03/09 00:51:15;;;;;;;14.13;7.00;;;1.00;99.90;;;;;;5086534;28;20037;-78
2023/03/09 00:53:42;;;;;;;11.65;6.47;;;1.70;99.90;;;;;;5086361;28;20033;-77
2023/03/09 00:56:14;;;;;;;11.85;6.55;;;1.00;99.90;;;;;;5085629;28;20464;-78
2023/03/09 00:58:41;;;;;;;17.25;7.43;;;1.40;99.90;;;;;;5069889;28;20136;-78
2023/03/09 01:01:10;;;;;;;13.48;6.68;;;1.00;99.90;;;;;;5085919;28;20127;-78
2023/03/09 01:03:37;;;;;;;12.98;6.38;;;1.30;99.90;;;;;;5119836;28;20124;-77
2023/03/09 01:06:04;;;;;;;13.15;6.22;;;1.00;99.90;;;;;;5085638;28;20127;-78
2023/03/09 01:08:32;;;;;;;16.98;6.85;;;1.00;99.90;;;;;;5102848;28;20084;-78
2023/03/09 01:10:59;;;;;;;15.63;6.85;;;1.00;99.90;;;;;;5102442;28;20120;-77
2023/03/09 01:13:26;;;;;;;13.07;6.35;;;0.90;99.90;;;;;;5102390;28;20047;-77
2023/03/09 01:15:53;;;;;;;12.68;6.50;;;1.00;99.90;;;;;;5069718;28;20040;-78
2023/03/09 01:18:19;;;;;;;11.82;6.35;;;1.00;99.90;;;;;;5085532;28;20060;-78
2023/03/09 01:20:46;;;;;;;12.70;6.63;;;1.40;99.90;;;;;;5069451;28;20040;-77
2023/03/09 01:23:13;;;;;;;12.38;6.75;;;1.60;99.90;;;;;;5085262;28;20071;-78
2023/03/09 01:25:40;;;;;;;13.68;7.15;;;0.90;99.90;;;;;;5068798;28;20033;-78
2023/03/09 01:28:06;;;;;;;12.73;6.70;;;0.90;99.90;;;;;;5068572;28;20037;-78
2023/03/09 01:30:33;;;;;;;16.88;7.53;;;1.50;99.90;;;;;;5068766;28;20516;-78
2023/03/09 01:33:00;;;;;;;14.18;7.40;;;1.80;99.90;;;;;;5085717;28;20040;-78
2023/03/09 01:35:26;;;;;;;15.10;7.32;;;1.20;99.90;;;;;;5085281;28;20127;-78
2023/03/09 01:37:53;;;;;;;14.73;7.28;;;1.10;99.90;;;;;;5102053;28;20052;-78
2023/03/09 01:40:23;;;;;;;15.27;7.43;;;1.20;99.90;;;;;;5085251;28;20448;-78
2023/03/09 01:43:25;;;;;;;14.02;7.25;;;0.80;99.90;;;;;;5068704;28;20052;-77
2023/03/09 01:46:13;;;;;;;15.50;7.88;;;0.70;99.90;;;;;;5091488;28;20056;-78
2023/03/09 01:48:40;;;;;;;14.63;7.28;;;0.80;99.90;;;;;;5101908;28;20120;-77
2023/03/09 01:51:07;;;;;;;15.00;7.57;;;1.00;99.90;;;;;;5101783;28;20537;-77
2023/03/09 01:53:33;;;;;;;17.90;7.72;;;0.80;99.90;;;;;;5101510;28;20041;-77
2023/03/09 01:56:01;;;;;;;14.25;7.43;;;0.70;99.90;;;;;;5085189;28;20462;-77
2023/03/09 01:58:31;;;;;;;14.80;7.38;;;0.80;99.90;;;;;;5101382;28;20693;-77
2023/03/09 02:00:58;;;;;;;15.95;7.75;;;0.90;99.90;;;;;;5101776;28;20100;-78
2023/03/09 02:03:37;;;;;;;16.60;7.97;;;0.80;99.90;;;;;;5084860;28;20072;-77
2023/03/09 02:06:23;;;;;;;16.42;7.70;;;0.60;99.90;;;;;;5068622;28;20387;-78
2023/03/09 02:09:11;;;;;;;16.33;8.00;;;0.60;99.90;;;;;;5102001;28;20580;-78
2023/03/09 02:11:39;;;;;;;14.52;7.45;;;0.50;99.90;;;;;;5084892;28;20116;-78
2023/03/09 02:14:07;;;;;;;15.93;7.70;;;0.50;99.90;;;;;;5068976;28;20076;-77
2023/03/09 02:16:34;;;;;;;15.85;7.85;;;1.00;99.90;;;;;;5068212;28;20041;-78
2023/03/09 02:19:01;;;;;;;18.23;8.60;;;1.30;99.90;;;;;;5101654;28;20044;-77
2023/03/09 02:21:50;;;;;;;15.73;7.82;;;0.50;99.90;;;;;;5084981;28;20501;-78
2023/03/09 02:24:55;;;;;;;20.05;9.10;;;0.40;99.90;;;;;;5101324;28;20049;-78
2023/03/09 02:27:25;;;;;;;18.88;8.48;;;0.50;99.90;;;;;;5073730;28;20044;-78
2023/03/09 02:29:53;;;;;;;18.13;8.75;;;0.70;99.90;;;;;;5085157;28;20110;-77
2023/03/09 02:32:19;;;;;;;15.52;7.63;;;0.40;99.90;;;;;;5101424;28;20047;-77
2023/03/09 02:34:46;;;;;;;15.52;7.93;;;0.50;99.90;;;;;;5084921;28;20045;-78
2023/03/09 02:37:25;;;;;;;18.50;8.52;;;0.40;99.90;;;;;;5085418;28;20051;-77
2023/03/09 02:39:59;;;;;;;15.25;7.40;;;0.40;99.90;;;;;;5101738;28;20554;-77
2023/03/09 02:42:27;;;;;;;12.43;5.80;;;0.40;99.90;;;;;;5084488;28;20041;-78
2023/03/09 02:44:55;;;;;;;16.10;6.70;;;0.40;99.90;;;;;;5084971;28;20053;-77
2023/03/09 02:47:22;;;;;;;11.38;5.55;;;0.40;99.90;;;;;;5084448;28;20033;-78
2023/03/09 02:49:50;;;;;;;16.30;6.72;;;0.50;99.90;;;;;;5068180;28;20033;-77
2023/03/09 02:52:17;;;;;;;16.67;7.05;;;0.40;99.90;;;;;;5068404;28;20048;-77
2023/03/09 02:54:44;;;;;;;16.55;6.28;;;0.40;99.90;;;;;;5067894;28;20052;-77
2023/03/09 02:57:11;;;;;;;15.82;6.63;;;1.20;99.90;;;;;;5085038;28;20045;-78
2023/03/09 02:59:37;;;;;;;15.18;6.55;;;0.80;99.90;;;;;;5101526;28;20040;-78
2023/03/09 03:02:04;;;;;;;15.90;6.30;;;0.40;99.90;;;;;;5084709;28;20037;-78
2023/03/09 03:04:31;;;;;;;15.43;6.57;;;0.40;99.90;;;;;;5068142;28;20083;-78
2023/03/09 03:06:58;;;;;;;14.88;6.95;;;1.10;99.90;;;;;;5104075;28;20033;-78
2023/03/09 03:09:25;;;;;;;14.52;6.28;;;0.40;99.90;;;;;;5105036;28;20055;-78
2023/03/09 03:11:52;;;;;;;18.42;6.63;;;0.40;99.90;;;;;;5088040;28;20037;-78
2023/03/09 03:14:19;;;;;;;16.50;6.95;;;0.70;99.90;;;;;;5088481;28;20036;-77
2023/03/09 03:16:45;;;;;;;18.20;7.20;;;1.30;99.90;;;;;;5087556;28;20141;-77
2023/03/09 03:19:12;;;;;;;14.50;6.80;;;0.70;99.90;;;;;;5088033;28;20564;-78
2023/03/09 03:21:39;;;;;;;17.35;7.30;;;0.50;99.90;;;;;;5121443;28;20401;-77
2023/03/09 03:24:06;;;;;;;14.95;7.22;;;0.50;99.90;;;;;;5104631;28;20481;-77
2023/03/09 03:26:33;;;;;;;15.63;7.05;;;0.50;99.90;;;;;;5104758;28;20037;-78
2023/03/09 03:28:59;;;;;;;17.63;7.78;;;0.50;99.90;;;;;;5087289;28;20041;-78
2023/03/09 03:31:26;;;;;;;14.95;7.20;;;1.30;99.90;;;;;;5120930;28;20052;-78
2023/03/09 03:33:53;;;;;;;19.02;6.90;;;0.50;99.90;;;;;;5087844;28;20097;-78
2023/03/09 03:36:19;;;;;;;14.35;6.72;;;0.50;99.90;;;;;;5104463;28;20087;-78
2023/03/09 03:38:46;;;;;;;21.27;7.93;;;0.50;99.90;;;;;;5120887;28;20057;-78
2023/03/09 03:41:13;;;;;;;17.80;7.28;;;1.00;99.90;;;;;;5070836;28;20041;-78
2023/03/09 03:43:39;;;;;;;21.50;8.50;;;0.50;99.90;;;;;;5087170;28;20525;-78
2023/03/09 03:46:06;;;;;;;16.58;6.75;;;1.20;99.90;;;;;;5104045;28;20056;-78
2023/03/09 03:48:33;;;;;;;19.20;8.07;;;0.60;99.90;;;;;;5103722;28;20037;-78
2023/03/09 03:51:00;;;;;;;19.30;6.95;;;0.50;99.90;;;;;;5103760;28;20052;-77
2023/03/09 03:53:26;;;;;;;20.00;7.90;;;1.40;99.90;;;;;;5087646;28;20489;-77
2023/03/09 03:55:53;;;;;;;19.73;7.47;;;0.90;99.90;;;;;;5103897;28;20069;-78
2023/03/09 03:58:20;;;;;;;18.35;7.90;;;1.00;99.90;;;;;;5087341;28;20037;-78
2023/03/09 04:00:46;;;;;;;19.77;7.55;;;0.60;99.90;;;;;;5070404;28;20106;-78
2023/03/09 04:03:13;;;;;;;18.70;8.25;;;0.60;99.90;;;;;;5070552;28;20580;-78
2023/03/09 04:05:40;;;;;;;18.25;8.13;;;0.60;99.90;;;;;;5086752;28;20405;-78
2023/03/09 04:08:07;;;;;;;17.48;7.13;;;0.70;99.90;;;;;;5086911;28;20405;-77
2023/03/09 04:10:38;;;;;;;17.40;7.43;;;0.70;99.90;;;;;;5086786;28;20041;-78
2023/03/09 04:13:05;;;;;;;16.13;6.68;;;0.60;99.90;;;;;;5070589;28;20098;-78
2023/03/09 04:15:32;;;;;;;18.40;7.32;;;0.70;99.90;;;;;;5070421;28;20043;-78
2023/03/09 04:17:59;;;;;;;18.95;8.32;;;1.20;99.90;;;;;;5070297;28;20486;-78
2023/03/09 04:20:26;;;;;;;17.90;7.05;;;0.60;99.90;;;;;;5070578;28;20048;-78
2023/03/09 04:22:53;;;;;;;17.00;7.22;;;1.10;99.90;;;;;;5120023;28;20052;-77
2023/03/09 04:25:20;;;;;;;18.33;7.22;;;1.00;99.90;;;;;;5103558;28;20040;-78
2023/03/09 04:27:47;;;;;;;17.55;7.03;;;0.60;99.90;;;;;;5103221;28;20094;-77
2023/03/09 04:30:13;;;;;;;18.80;7.65;;;1.00;99.90;;;;;;5070220;28;20127;-78
2023/03/09 04:32:40;;;;;;;19.95;8.25;;;0.60;99.90;;;;;;5086483;28;20040;-78
2023/03/09 04:35:08;;;;;;;16.98;7.32;;;0.60;99.90;;;;;;5069907;28;20072;-77
2023/03/09 04:37:34;;;;;;;17.25;7.55;;;0.60;99.90;;;;;;5103229;28;20179;-78
2023/03/09 04:40:01;;;;;;;16.58;6.88;;;0.90;99.90;;;;;;5086204;28;20127;-78
2023/03/09 04:42:28;;;;;;;17.05;7.22;;;0.60;99.90;;;;;;5102972;28;20404;-78
2023/03/09 04:44:54;;;;;;;16.77;8.05;;;0.80;99.90;;;;;;5086201;28;20902;-78
2023/03/09 04:47:22;;;;;;;18.38;8.13;;;0.90;99.90;;;;;;5086341;28;20503;-78
2023/03/09 04:49:49;;;;;;;19.10;8.13;;;0.50;99.90;;;;;;5086225;28;20044;-78
2023/03/09 04:52:16;;;;;;;19.60;8.25;;;0.70;99.90;;;;;;5086268;28;20071;-78
2023/03/09 04:54:43;;;;;;;17.15;7.78;;;0.50;99.90;;;;;;5102473;28;20413;-78
2023/03/09 04:57:09;;;;;;;14.15;6.75;;;0.50;99.90;;;;;;5086213;28;20524;-78
2023/03/09 04:59:36;;;;;;;18.40;8.27;;;1.40;99.90;;;;;;5102618;28;20079;-78
2023/03/09 05:02:03;;;;;;;18.80;7.93;;;0.40;99.90;;;;;;5065026;28;20047;-78
2023/03/09 05:04:29;;;;;;;16.83;7.38;;;0.50;99.90;;;;;;5069348;28;20120;-78
2023/03/09 05:06:56;;;;;;;17.52;8.10;;;0.40;99.90;;;;;;5069211;28;20040;-78
2023/03/09 05:09:23;;;;;;;16.52;7.60;;;0.40;99.90;;;;;;5085727;28;20032;-77
2023/03/09 05:11:51;;;;;;;19.33;8.45;;;0.70;99.90;;;;;;5068671;28;20037;-78
2023/03/09 05:14:19;;;;;;;15.50;7.05;;;1.10;99.90;;;;;;5033698;28;20037;-78
2023/03/09 05:16:51;;;;;;;16.88;8.05;;;0.40;99.90;;;;;;5048977;28;20043;-78
2023/03/09 05:19:19;;;;;;;17.25;7.57;;;0.40;99.90;;;;;;5082403;28;20099;-78
2023/03/09 05:21:45;;;;;;;16.85;7.60;;;0.30;99.90;;;;;;5065240;28;20049;-78
2023/03/09 05:24:13;;;;;;;17.23;7.10;;;0.50;99.90;;;;;;5074660;28;20477;-78
2023/03/09 05:26:39;;;;;;;20.45;7.63;;;0.40;99.90;;;;;;5085596;28;20090;-78
2023/03/09 05:29:06;;;;;;;23.75;8.00;;;0.30;99.90;;;;;;5068761;28;20481;-78
2023/03/09 05:31:33;;;;;;;15.77;7.43;;;1.20;99.90;;;;;;5085526;28;20417;-78
2023/03/09 05:33:59;;;;;;;23.27;7.72;;;0.30;99.90;;;;;;5085322;28;20052;-78
2023/03/09 05:36:26;;;;;;;17.88;7.88;;;0.30;99.90;;;;;;5068733;28;20044;-78
2023/03/09 05:38:53;;;;;;;20.52;7.93;;;0.30;99.90;;;;;;5085140;28;20055;-78
2023/03/09 05:41:21;;;;;;;20.52;8.35;;;0.90;99.90;;;;;;5085773;28;20127;-78
2023/03/09 05:43:47;;;;;;;15.48;6.35;;;0.20;99.90;;;;;;5084625;28;20045;-78
2023/03/09 05:46:16;;;;;;;13.70;6.15;;;0.20;99.90;;;;;;5085294;28;20417;-78
2023/03/09 05:48:45;;;;;;;11.10;5.18;;;0.20;99.90;;;;;;5102357;28;20036;-78
2023/03/09 05:51:12;;;;;;;19.08;6.28;;;0.20;99.90;;;;;;5102549;28;20174;-78
2023/03/09 05:53:39;;;;;;;17.90;5.95;;;0.20;99.90;;;;;;5068851;28;20120;-78
2023/03/09 05:56:06;;;;;;;12.60;5.53;;;0.20;99.90;;;;;;5068475;28;20053;-78
2023/03/09 05:58:34;;;;;;;10.25;5.47;;;0.20;99.90;;;;;;5085039;28;20048;-78
2023/03/09 06:01:01;;;;;;;10.85;5.03;;;0.20;99.90;;;;;;5118249;28;20052;-78
2023/03/09 06:03:28;;;;;;;12.63;5.65;;;0.20;99.90;;;;;;5118351;28;20478;-78
2023/03/09 06:06:05;;;;;;;13.88;6.70;;;0.10;99.90;;;;;;5101274;28;20087;-78
2023/03/09 06:08:32;;;;;;;17.17;6.45;;;0.10;99.90;;;;;;5068363;28;20041;-78
2023/03/09 06:11:00;;;;;;;15.13;7.72;;;0.70;99.90;;;;;;5084248;28;20128;-78
2023/03/09 06:13:27;;;;;;;15.23;7.15;;;0.90;99.90;;;;;;5084827;28;20079;-78
2023/03/09 06:15:54;;;;;;;16.13;5.93;;;0.10;99.90;;;;;;5068108;28;20049;-78
2023/03/09 06:18:21;;;;;;;14.88;6.05;;;0.10;99.90;;;;;;5068431;28;20047;-78
2023/03/09 06:20:48;;;;;;;14.25;6.47;;;0.50;99.90;;;;;;5084799;28;20485;-78
2023/03/09 06:23:15;;;;;;;13.77;5.55;;;0.10;99.90;;;;;;5068618;28;20045;-78
2023/03/09 06:25:42;;;;;;;12.00;5.28;;;0.30;99.90;;;;;;5085158;28;20037;-78
2023/03/09 06:28:09;;;;;;;10.93;5.65;;;0.20;99.90;;;;;;5084560;28;20088;-78
2023/03/09 06:30:38;;;;;;;10.40;5.75;;;0.20;99.90;;;;;;5101255;28;20052;-78
2023/03/09 06:33:06;;;;;;;14.52;5.07;;;0.20;99.90;;;;;;5067873;28;20045;-78
2023/03/09 06:35:33;;;;;;;17.45;6.63;;;0.30;99.90;;;;;;5068033;28;20077;-78
2023/03/09 06:38:01;;;;;;;10.98;4.93;;;0.80;99.90;;;;;;5101651;28;20080;-78
2023/03/09 06:40:29;;;;;;;11.40;5.35;;;0.30;99.90;;;;;;5084812;28;20494;-78
2023/03/09 06:42:56;;;;;;;15.05;5.63;;;0.40;99.90;;;;;;5088274;28;20045;-78
2023/03/09 06:45:23;;;;;;;12.18;5.28;;;0.30;99.90;;;;;;5105051;28;20126;-78
2023/03/09 06:47:54;;;;;;;14.65;6.15;;;0.30;99.90;;;;;;5088416;28;20151;-78
2023/03/09 06:50:22;;;;;;;12.30;5.38;;;0.30;99.90;;;;;;5088651;28;20040;-78
2023/03/09 06:52:49;;;;;;;11.85;5.50;;;0.30;99.90;;;;;;5088402;28;20127;-78
2023/03/09 06:55:16;;;;;;;13.63;4.93;;;0.30;99.90;;;;;;5104959;28;20141;-78
2023/03/09 06:57:43;;;;;;;11.88;5.05;;;0.30;99.90;;;;;;5105377;28;20092;-78
2023/03/09 07:00:11;;;;;;;11.25;5.93;;;1.10;99.90;;;;;;5088445;28;20048;-78
2023/03/09 07:02:39;;;;;;;12.25;5.40;;;0.40;99.90;;;;;;5104889;28;20072;-78
2023/03/09 07:05:07;;;;;;;9.75;4.63;;;0.40;99.90;;;;;;5104948;28;20037;-78
2023/03/09 07:07:34;;;;;;;13.85;5.40;;;0.50;99.90;;;;;;5071646;28;20107;-78
2023/03/09 07:10:01;;;;;;;10.65;4.97;;;1.20;99.90;;;;;;5071328;28;20032;-78
2023/03/09 07:12:28;;;;;;;13.27;5.20;;;1.10;99.90;;;;;;5087824;28;20048;-78
2023/03/09 07:14:54;;;;;;;12.45;5.35;;;1.30;99.90;;;;;;5055339;28;20045;-78
2023/03/09 07:17:21;;;;;;;13.85;5.15;;;1.30;99.90;;;;;;5071122;28;20041;-78
2023/03/09 07:19:48;;;;;;;8.48;4.72;;;1.10;99.90;;;;;;5088100;28;20041;-77
2023/03/09 07:22:15;;;;;;;11.68;4.95;;;0.60;99.90;;;;;;5071209;28;20041;-78
2023/03/09 07:24:41;;;;;;;15.82;5.93;;;1.10;99.90;;;;;;5087894;28;20048;-78
2023/03/09 07:27:08;;;;;;;14.63;5.32;;;0.70;99.90;;;;;;5070748;28;20037;-78
2023/03/09 07:29:35;;;;;;;15.02;5.43;;;1.60;99.90;;;;;;5071071;28;20482;-78
2023/03/09 07:32:02;;;;;;;12.95;6.38;;;0.70;99.90;;;;;;5070645;28;20486;-78
2023/03/09 07:34:32;;;;;;;10.82;5.25;;;0.80;99.90;;;;;;5070957;28;20381;-78
2023/03/09 07:37:00;;;;;;;10.82;4.50;;;0.80;99.90;;;;;;5087602;28;20808;-78
2023/03/09 07:39:27;;;;;;;13.32;5.90;;;0.80;99.90;;;;;;5070767;28;20457;-78
2023/03/09 07:41:53;;;;;;;13.25;4.60;;;0.90;99.90;;;;;;5071362;28;20067;-78
2023/03/09 07:44:20;;;;;;;11.75;5.15;;;1.00;99.90;;;;;;5054326;28;20041;-78
2023/03/09 07:46:47;;;;;;;10.52;4.32;;;1.00;99.90;;;;;;5070385;28;20045;-78
2023/03/09 07:49:14;;;;;;;9.95;5.38;;;1.20;99.90;;;;;;5054075;28;20461;-78
2023/03/09 07:51:41;;;;;;;11.00;4.95;;;1.50;99.90;;;;;;5086810;28;20076;-78
2023/03/09 07:54:07;;;;;;;12.38;5.95;;;1.30;99.90;;;;;;5070263;28;20041;-77
2023/03/09 07:56:34;;;;;;;14.20;5.28;;;1.00;99.90;;;;;;5070891;28;20041;-78
2023/03/09 07:59:01;;;;;;;12.60;5.35;;;1.00;99.90;;;;;;5099672;28;20045;-78
2023/03/09 08:01:28;;;;;;;15.45;5.53;;;1.00;99.90;;;;;;5090232;28;20040;-78
2023/03/09 08:03:54;;;;;;;11.40;4.53;;;1.10;99.90;;;;;;5054053;28;20575;-78
2023/03/09 08:06:21;;;;;;;12.40;5.65;;;1.00;99.90;;;;;;5054180;28;20029;-78
2023/03/09 08:08:48;;;;;;;12.60;4.72;;;1.20;99.90;;;;;;5054117;28;20037;-78
2023/03/09 08:11:15;;;;;;;12.25;4.68;;;1.30;99.90;;;;;;5103686;28;20048;-77
2023/03/09 08:13:43;;;;;;;15.88;5.18;;;1.30;99.90;;;;;;5087277;28;20052;-78
2023/03/09 08:16:10;;;;;;;9.27;4.47;;;1.40;99.90;;;;;;5086695;28;20048;-76
2023/03/09 08:18:37;;;;;;;8.82;4.45;;;1.50;99.90;;;;;;5102901;28;20478;-76
2023/03/09 08:21:09;;;;;;;12.63;4.78;;;1.60;99.90;;;;;;5069430;28;20037;-76
2023/03/09 08:23:40;;;;;;;13.35;5.63;;;1.70;99.90;;;;;;5069279;28;20048;-76
2023/03/09 08:26:08;;;;;;;11.35;4.75;;;1.70;99.90;;;;;;5048594;28;20071;-76
2023/03/09 08:28:35;;;;;;;11.32;5.00;;;2.00;99.90;;;;;;5069356;28;20033;-75
2023/03/09 08:31:02;;;;;;;8.70;4.57;;;2.00;99.90;;;;;;5052682;28;20037;-76
2023/03/09 08:33:29;;;;;;;10.93;5.32;;;1.90;99.90;;;;;;5068953;28;20029;-76
2023/03/09 08:35:55;;;;;;;8.57;4.80;;;1.90;99.90;;;;;;5069027;28;20098;-76
2023/03/09 08:38:23;;;;;;;8.40;4.47;;;2.00;99.90;;;;;;5069030;28;20116;-76
2023/03/09 08:40:49;;;;;;;14.10;4.97;;;2.00;99.90;;;;;;5069079;28;20036;-76
2023/03/09 08:43:16;;;;;;;12.05;5.25;;;2.10;99.90;;;;;;5085043;28;20041;-76
2023/03/09 08:45:43;;;;;;;11.02;5.15;;;2.60;99.90;;;;;;5101760;28;20049;-75
2023/03/09 08:48:09;;;;;;;9.85;4.68;;;2.60;99.90;;;;;;5136376;28;20558;-76
2023/03/09 08:50:37;;;;;;;10.35;4.55;;;2.00;99.90;;;;;;5085800;28;20095;-76
2023/03/09 08:53:03;;;;;;;9.30;4.72;;;2.00;99.90;;;;;;5102358;28;20675;-75
2023/03/09 08:55:30;;;;;;;9.30;4.35;;;2.00;99.90;;;;;;5101524;28;20048;-76
2023/03/09 08:57:58;;;;;;;9.25;4.47;;;2.10;99.90;;;;;;5101893;28;20045;-75
2023/03/09 09:00:25;;;;;;;9.60;4.55;;;2.10;99.90;;;;;;5102454;28;20048;-76
2023/03/09 09:02:52;;;;;;;9.95;5.22;;;2.10;99.90;;;;;;5084718;28;20191;-75
2023/03/09 09:05:18;;;;;;;9.82;4.38;;;2.90;99.90;;;;;;5118516;28;20555;-79
2023/03/09 09:07:45;;;;;;;13.43;4.97;;;2.80;99.90;;;;;;5085754;28;20048;-76
2023/03/09 09:10:12;;;;;;;11.68;4.90;;;2.20;99.90;;;;;;5085763;28;20037;-77
2023/03/09 09:12:39;;;;;;;11.50;5.03;;;2.30;99.90;;;;;;5069107;28;20037;-77
2023/03/09 09:15:13;;;;;;;11.40;4.80;;;3.00;99.90;;;;;;5085816;28;20101;-76
2023/03/09 09:17:40;;;;;;;9.52;4.57;;;2.30;99.90;;;;;;5069268;28;20048;-77
2023/03/09 09:20:08;;;;;;;9.05;3.70;;;2.90;99.90;;;;;;5102737;28;20562;-76
2023/03/09 09:22:35;;;;;;;17.60;5.68;;;2.40;99.90;;;;;;5101898;28;20045;-76
2023/03/09 09:25:05;;;;;;;16.35;5.47;;;2.50;99.90;;;;;;5085353;28;20036;-77
2023/03/09 09:27:32;;;;;;;12.95;5.20;;;2.50;99.90;;;;;;5068686;28;20098;-77
2023/03/09 09:29:58;;;;;;;15.95;4.95;;;2.60;99.90;;;;;;5085458;28;20786;-77
2023/03/09 09:32:25;;;;;;;9.90;4.60;;;2.70;99.90;;;;;;5101721;28;20041;-77
2023/03/09 09:34:53;;;;;;;17.83;5.63;;;2.60;99.90;;;;;;5085051;28;20048;-77
2023/03/09 09:37:19;;;;;;;11.70;4.13;;;2.70;99.90;;;;;;5084994;28;20076;-77
2023/03/09 09:39:46;;;;;;;11.68;3.97;;;3.50;99.90;;;;;;5085077;28;20575;-77
2023/03/09 09:42:26;;;;;;;13.23;4.32;;;2.90;99.90;;;;;;5085439;28;20413;-77
2023/03/09 09:44:54;;;;;;;15.43;5.03;;;2.90;99.90;;;;;;5085341;28;20037;-77
2023/03/09 09:47:24;;;;;;;9.27;4.30;;;3.00;99.90;;;;;;5084806;28;20052;-76
2023/03/09 09:49:54;;;;;;;11.65;5.35;;;3.10;99.90;;;;;;5101996;28;20051;-76
2023/03/09 09:52:59;;;;;;;10.00;4.43;;;3.10;99.90;;;;;;5067814;28;20497;-77
2023/03/09 09:55:31;;;;;;;17.60;5.60;;;3.10;99.90;;;;;;5100794;28;20037;-77
2023/03/09 09:58:32;;;;;;;10.95;4.53;;;3.10;99.90;;;;;;5084573;28;20405;-76
2023/03/09 10:01:10;;;;;;;12.00;4.57;;;3.10;99.90;;;;;;5084772;28;20041;-76
2023/03/09 10:03:44;;;;;;;9.23;3.92;;;3.00;99.90;;;;;;5100624;28;20072;-76
2023/03/09 10:06:18;;;;;;;10.75;5.15;;;3.10;99.90;;;;;;5085101;28;20033;-76
2023/03/09 10:09:07;;;;;;;10.43;4.50;;;3.10;99.90;;;;;;5085405;28;20033;-77
2023/03/09 10:11:35;;;;;;;7.65;3.80;;;3.20;99.90;;;;;;5067807;28;20037;-76
2023/03/09 10:14:07;;;;;;;8.85;3.70;;;3.30;99.90;;;;;;5101763;28;20037;-76
2023/03/09 10:16:38;;;;;;;7.97;3.55;;;3.30;99.90;;;;;;5071853;28;20524;-77
2023/03/09 10:19:15;;;;;;;6.93;3.65;;;3.30;99.90;;;;;;5122734;28;20056;-76
2023/03/09 10:21:48;;;;;;;10.25;4.40;;;3.40;99.90;;;;;;5085037;28;20044;-76
2023/03/09 10:24:27;;;;;;;10.13;4.03;;;3.40;99.90;;;;;;5102631;28;20045;-77
2023/03/09 10:27:00;;;;;;;8.88;4.18;;;3.50;99.90;;;;;;5072200;28;20123;-77
2023/03/09 10:29:54;;;;;;;8.82;3.88;;;3.50;99.90;;;;;;5088688;28;20076;-77
2023/03/09 10:32:25;;;;;;;8.45;3.95;;;3.60;99.90;;;;;;5071983;28;20048;-76
2023/03/09 10:35:18;;;;;;;7.63;3.65;;;3.50;99.90;;;;;;5121830;28;20044;-77
2023/03/09 10:37:46;;;;;;;10.63;4.35;;;2.80;99.90;;;;;;5071951;28;20076;-77
2023/03/09 10:40:29;;;;;;;8.88;3.50;;;3.40;99.90;;;;;;5072135;28;20494;-76
2023/03/09 10:42:58;;;;;;;8.07;3.78;;;3.40;99.90;;;;;;5072398;28;20041;-76
2023/03/09 10:45:31;;;;;;;10.00;4.00;;;3.40;99.90;;;;;;5088069;28;20064;-76
2023/03/09 10:48:09;;;;;;;10.25;3.97;;;3.40;99.90;;;;;;5071886;28;20405;-77
2023/03/09 10:50:40;;;;;;;9.05;3.83;;;3.50;99.90;;;;;;5088216;28;20128;-76
2023/03/09 10:53:28;;;;;;;7.55;3.78;;;3.50;99.90;;;;;;5071060;28;20068;-76
2023/03/09 10:56:06;;;;;;;8.55;3.72;;;3.50;99.90;;;;;;5103903;28;20056;-76
2023/03/09 10:58:34;;;;;;;7.72;3.78;;;3.40;99.90;;;;;;5087972;28;20409;-76
2023/03/09 11:01:03;;;;;;;8.82;3.92;;;3.50;99.90;;;;;;5087691;28;20094;-76
2023/03/09 11:03:38;;;;;;;7.95;3.60;;;3.40;99.90;;;;;;5103744;28;20748;-76
2023/03/09 11:06:34;;;;;;;7.65;3.88;;;3.60;99.90;;;;;;5070507;28;20028;-76
2023/03/09 11:09:10;;;;;;;9.43;4.30;;;3.50;99.90;;;;;;5084781;28;20536;-76
2023/03/09 11:11:37;;;;;;;8.43;3.90;;;3.50;99.90;;;;;;5051592;28;20042;-76
2023/03/09 11:14:05;;;;;;;7.90;3.95;;;3.60;99.90;;;;;;5054578;28;20075;-76
2023/03/09 11:16:34;;;;;;;9.90;4.43;;;3.50;99.90;;;;;;5087269;28;20112;-76
2023/03/09 11:19:13;;;;;;;9.18;4.05;;;3.90;99.90;;;;;;5071053;28;20501;-76
2023/03/09 11:22:01;;;;;;;7.47;3.72;;;3.50;99.90;;;;;;5086540;28;20036;-76
2023/03/09 11:24:34;;;;;;;10.93;4.10;;;3.60;99.90;;;;;;5079860;28;20102;-76
2023/03/09 11:27:14;;;;;;;13.95;4.95;;;3.60;99.90;;;;;;5086851;28;20072;-76
2023/03/09 11:30:05;;;;;;;10.00;3.88;;;3.60;99.90;;;;;;5116882;28;20037;-76
2023/03/09 11:32:32;;;;;;;9.98;4.25;;;3.60;99.90;;;;;;5107457;28;20043;-76
2023/03/09 11:35:00;;;;;;;7.05;3.75;;;3.70;99.90;;;;;;5054105;28;20040;-76
2023/03/09 11:37:56;;;;;;;7.53;3.35;;;3.80;99.90;;;;;;5070942;28;20499;-76
2023/03/09 11:40:28;;;;;;;7.80;4.22;;;3.60;99.90;;;;;;5087500;28;20052;-76
2023/03/09 11:43:06;;;;;;;11.75;5.03;;;3.60;99.90;;;;;;5069693;28;20052;-76
2023/03/09 11:45:35;;;;;;;10.48;4.38;;;3.60;99.90;;;;;;5062267;28;20482;-76
2023/03/09 11:48:05;;;;;;;10.00;4.55;;;3.60;99.90;;;;;;5054291;28;20041;-76
2023/03/09 11:50:40;;;;;;;10.32;4.05;;;3.60;99.90;;;;;;5086825;28;20041;-76
2023/03/09 11:53:24;;;;;;;9.55;4.68;;;3.60;99.90;;;;;;5070217;28;20033;-76
2023/03/09 11:55:59;;;;;;;7.82;4.45;;;3.60;99.90;;;;;;5103526;28;20485;-76
2023/03/09 11:58:30;;;;;;;13.10;4.87;;;3.60;99.90;;;;;;5070546;28;20045;-76
2023/03/09 12:01:17;;;;;;;14.63;5.10;;;3.60;99.90;;;;;;5103021;28;20795;-76
2023/03/09 12:04:04;;;;;;;10.77;4.53;;;3.60;99.90;;;;;;5069853;28;20774;-76
2023/03/09 12:06:43;;;;;;;9.77;4.38;;;3.70;99.90;;;;;;5070373;28;20033;-76
2023/03/09 12:09:26;;;;;;;9.73;4.75;;;3.70;99.90;;;;;;5087502;28;20037;-76
2023/03/09 12:12:22;;;;;;;10.18;4.18;;;3.60;99.90;;;;;;5069467;28;20511;-76
2023/03/09 12:14:54;;;;;;;9.27;4.65;;;3.90;99.90;;;;;;5069253;28;20147;-76
2023/03/09 12:17:27;;;;;;;9.77;4.18;;;3.90;99.90;;;;;;5064888;28;20439;-76
2023/03/09 12:19:55;;;;;;;10.55;4.85;;;3.70;99.90;;;;;;5086590;28;20041;-76
2023/03/09 12:22:27;;;;;;;9.60;4.18;;;3.80;99.90;;;;;;5086385;28;20068;-77
2023/03/09 12:24:59;;;;;;;13.18;5.20;;;3.80;99.90;;;;;;5085452;28;20037;-76
2023/03/09 12:27:28;;;;;;;9.95;4.75;;;3.70;99.90;;;;;;5086481;28;20029;-76
2023/03/09 12:30:30;;;;;;;12.18;5.35;;;3.70;99.90;;;;;;5086457;28;20076;-76
2023/03/09 12:33:10;;;;;;;8.90;4.72;;;3.70;99.90;;;;;;5061085;28;20122;-76
2023/03/09 12:35:39;;;;;;;10.50;5.07;;;3.80;99.90;;;;;;5084654;28;20041;-76
2023/03/09 12:38:19;;;;;;;10.23;4.93;;;3.70;99.90;;;;;;5086935;28;20037;-76
2023/03/09 12:40:47;;;;;;;10.43;4.90;;;3.80;99.90;;;;;;5103073;28;20127;-76
2023/03/09 12:43:13;;;;;;;9.95;4.95;;;3.80;99.90;;;;;;5069353;28;20073;-76
2023/03/09 12:45:45;;;;;;;11.13;5.10;;;3.80;99.90;;;;;;5069130;28;20517;-77
2023/03/09 12:48:27;;;;;;;11.20;5.22;;;3.80;99.90;;;;;;5086140;28;20037;-77
2023/03/09 12:50:58;;;;;;;11.00;4.95;;;3.90;99.90;;;;;;5086314;28;20041;-77
2023/03/09 12:53:30;;;;;;;12.57;5.20;;;3.90;99.90;;;;;;5080803;28;20052;-76
2023/03/09 12:56:16;;;;;;;12.18;6.20;;;3.90;99.90;;;;;;5069367;28;20124;-76
2023/03/09 12:58:47;;;;;;;9.23;5.13;;;3.90;99.90;;;;;;5068933;28;20047;-77
2023/03/09 13:01:17;;;;;;;11.35;5.35;;;3.90;99.90;;;;;;5086273;28;20505;-77
2023/03/09 13:04:16;;;;;;;10.82;5.22;;;3.90;99.90;;;;;;5068661;28;20049;-78